createdAt,value
2024-02-29T00:00:55.409Z,15.65
2024-02-29T00:03:43.488Z,12.57
2024-02-29T00:06:12.150Z,13.50
2024-02-29T00:08:40.430Z,13.98
2024-02-29T00:11:09.072Z,13.35
2024-02-29T00:13:37.389Z,10.75
2024-02-29T00:16:06.780Z,11.35
2024-02-29T00:18:35.263Z,11.75
2024-02-29T00:21:05.769Z,10.38
2024-02-29T00:23:34.088Z,10.40
2024-02-29T00:26:02.667Z,10.32
2024-02-29T00:28:30.265Z,11.43
2024-02-29T00:30:59.132Z,12.30
2024-02-29T00:33:27.629Z,10.07
2024-02-29T00:36:08.623Z,9.82
2024-02-29T00:41:11.557Z,10.30
2024-02-29T00:43:40.924Z,11.85
2024-02-29T00:46:09.935Z,11.05
2024-02-29T00:48:38.260Z,9.73
2024-02-29T00:51:07.097Z,10.15
2024-02-29T00:53:35.433Z,10.32
2024-02-29T00:56:05.954Z,8.82
2024-02-29T00:58:34.172Z,10.82
2024-02-29T01:01:02.924Z,10.52
2024-02-29T01:03:34.038Z,10.75
2024-02-29T01:06:05.574Z,10.63
2024-02-29T01:08:33.829Z,21.45
2024-02-29T01:11:04.752Z,14.90
2024-02-29T01:13:34.554Z,15.75
2024-02-29T01:16:03.279Z,10.68
2024-02-29T01:18:31.651Z,9.45
2024-02-29T01:21:00.294Z,12.23
2024-02-29T01:23:28.492Z,16.13
2024-02-29T01:25:57.123Z,12.15
2024-02-29T01:28:25.429Z,12.15
2024-02-29T01:30:55.369Z,11.85
2024-02-29T01:35:52.414Z,13.52
2024-02-29T01:38:20.769Z,12.98
2024-02-29T01:40:49.364Z,14.75
2024-02-29T01:43:18.008Z,17.50
2024-02-29T01:45:47.431Z,15.63
2024-02-29T01:48:17.493Z,12.95
2024-02-29T01:50:46.334Z,11.65
2024-02-29T01:53:14.597Z,15.73
2024-02-29T01:55:43.183Z,15.52
2024-02-29T01:58:13.871Z,13.32
2024-02-29T02:00:42.881Z,13.13
2024-02-29T02:03:11.447Z,14.77
2024-02-29T02:05:41.658Z,15.52
2024-02-29T02:08:10.476Z,11.32
2024-02-29T02:10:39.235Z,14.57
2024-02-29T02:13:08.995Z,15.90
2024-02-29T02:15:37.775Z,13.73
2024-02-29T02:18:06.691Z,11.65
2024-02-29T02:20:37.189Z,12.88
2024-02-29T02:23:05.742Z,12.50
2024-02-29T02:25:34.365Z,12.07
2024-02-29T02:28:03.141Z,11.88
2024-02-29T02:30:31.903Z,8.65
2024-02-29T02:33:01.880Z,12.40
2024-02-29T02:35:30.538Z,14.05
2024-02-29T02:38:00.193Z,9.70
2024-02-29T02:40:30.066Z,7.90
2024-02-29T02:42:59.650Z,11.07
2024-02-29T02:45:28.348Z,12.05
2024-02-29T02:47:56.791Z,11.50
2024-02-29T02:50:26.259Z,9.25
2024-02-29T02:52:54.583Z,8.88
2024-02-29T02:55:24.681Z,10.50
2024-02-29T02:57:53.131Z,12.70
2024-02-29T03:00:22.012Z,10.18
2024-02-29T03:02:50.480Z,10.50
2024-02-29T03:05:19.733Z,8.48
2024-02-29T03:07:48.453Z,8.77
2024-02-29T03:10:17.169Z,11.73
2024-02-29T03:12:48.360Z,11.20
2024-02-29T03:15:17.585Z,8.80
2024-02-29T03:17:45.875Z,11.40
2024-02-29T03:20:14.638Z,9.23
2024-02-29T03:22:43.310Z,8.63
2024-02-29T03:25:12.260Z,9.18
2024-02-29T03:27:40.770Z,12.15
2024-02-29T03:30:11.849Z,8.93
2024-02-29T03:32:39.174Z,9.38
2024-02-29T03:35:08.147Z,11.82
2024-02-29T03:37:38.123Z,16.25
2024-02-29T03:40:08.095Z,15.93
2024-02-29T03:45:05.017Z,18.77
2024-02-29T03:47:34.674Z,20.77
2024-02-29T03:50:03.583Z,23.05
2024-02-29T03:52:31.884Z,24.38
2024-02-29T03:55:00.655Z,24.73
2024-02-29T03:57:28.965Z,21.50
2024-02-29T03:59:57.955Z,24.20
2024-02-29T04:02:26.226Z,22.67
2024-02-29T04:04:56.762Z,23.25
2024-02-29T04:07:25.179Z,22.52
2024-02-29T04:09:56.060Z,24.20
2024-02-29T04:12:24.770Z,33.10
2024-02-29T04:14:53.343Z,29.17
2024-02-29T04:17:21.942Z,30.20
2024-02-29T04:19:50.675Z,25.95
2024-02-29T04:22:20.272Z,21.75
2024-02-29T04:24:48.883Z,25.20
2024-02-29T04:27:17.293Z,27.27
2024-02-29T04:29:46.971Z,22.95
2024-02-29T04:32:15.303Z,26.08
2024-02-29T04:34:44.366Z,28.88
2024-02-29T04:37:12.579Z,26.05
2024-02-29T04:39:42.641Z,23.70
2024-02-29T04:44:39.911Z,28.73
2024-02-29T04:47:08.653Z,27.25
2024-02-29T04:49:37.502Z,27.95
2024-02-29T04:52:06.818Z,28.70
2024-02-29T04:54:35.575Z,25.02
2024-02-29T04:57:05.363Z,29.38
2024-02-29T04:59:33.972Z,24.90
2024-02-29T05:02:02.806Z,28.63
2024-02-29T05:04:31.607Z,32.95
2024-02-29T05:07:00.082Z,26.63
2024-02-29T05:09:28.857Z,26.77
2024-02-29T05:11:57.164Z,24.50
2024-02-29T05:14:28.045Z,23.85
2024-02-29T05:16:56.484Z,24.00
2024-02-29T05:19:25.517Z,20.88
2024-02-29T05:21:53.899Z,23.15
2024-02-29T05:24:22.594Z,25.33
2024-02-29T05:26:51.286Z,25.17
2024-02-29T05:29:19.950Z,24.00
2024-02-29T05:31:54.152Z,27.05
2024-02-29T05:34:25.092Z,27.55
2024-02-29T05:36:54.202Z,27.17
2024-02-29T05:39:22.859Z,26.02
2024-02-29T05:41:51.193Z,25.23
2024-02-29T05:44:20.568Z,22.60
2024-02-29T05:46:48.812Z,22.08
2024-02-29T05:49:19.219Z,19.35
2024-02-29T05:51:47.517Z,22.50
2024-02-29T05:54:16.502Z,23.10
2024-02-29T05:56:45.025Z,25.60
2024-02-29T05:59:13.980Z,25.55
2024-02-29T06:01:42.266Z,21.55
2024-02-29T06:04:10.977Z,22.55
2024-02-29T06:06:40.652Z,25.70
2024-02-29T06:09:13.804Z,25.48
2024-02-29T06:11:41.995Z,21.73
2024-02-29T06:14:11.521Z,21.90
2024-02-29T06:16:39.728Z,19.05
2024-02-29T06:19:08.394Z,23.10
2024-02-29T06:21:36.781Z,23.75
2024-02-29T06:24:07.069Z,21.13
2024-02-29T06:26:36.060Z,19.95
2024-02-29T06:29:04.703Z,21.88
2024-02-29T06:31:32.908Z,21.23
2024-02-29T06:34:01.684Z,20.40
2024-02-29T06:36:30.086Z,19.38
2024-02-29T06:38:58.706Z,21.02
2024-02-29T06:41:28.768Z,20.70
2024-02-29T06:43:57.290Z,17.60
2024-02-29T06:46:25.610Z,21.58
2024-02-29T06:48:54.243Z,22.35
2024-02-29T06:51:22.524Z,23.90
2024-02-29T06:53:51.102Z,18.63
2024-02-29T06:56:19.449Z,20.58
2024-02-29T06:58:49.403Z,20.50
2024-02-29T07:03:50.029Z,21.25
2024-02-29T07:06:18.595Z,23.15
2024-02-29T07:08:48.473Z,26.20
2024-02-29T07:11:16.881Z,26.42
2024-02-29T07:13:47.568Z,23.15
2024-02-29T07:16:20.504Z,21.90
2024-02-29T07:18:49.407Z,20.80
2024-02-29T07:21:17.814Z,22.65
2024-02-29T07:23:46.548Z,17.63
2024-02-29T07:26:14.883Z,20.20
2024-02-29T07:28:43.433Z,22.40
2024-02-29T07:31:13.214Z,20.27
2024-02-29T07:33:43.276Z,22.83
2024-02-29T07:36:11.552Z,17.40
2024-02-29T07:38:40.212Z,22.95
2024-02-29T07:41:08.401Z,19.42
2024-02-29T07:43:37.080Z,19.90
2024-02-29T07:46:05.992Z,20.00
2024-02-29T07:48:34.763Z,20.52
2024-02-29T07:51:04.447Z,17.80
2024-02-29T07:53:33.086Z,22.88
2024-02-29T07:56:01.275Z,17.92
2024-02-29T07:58:30.102Z,26.30
2024-02-29T08:00:58.742Z,18.33
2024-02-29T08:03:27.411Z,19.55
2024-02-29T08:05:56.867Z,20.92
2024-02-29T08:08:26.952Z,17.27
2024-02-29T08:10:55.351Z,16.67
2024-02-29T08:13:24.217Z,14.52
2024-02-29T08:15:52.735Z,14.80
2024-02-29T08:18:21.407Z,17.92
2024-02-29T08:20:49.787Z,17.17
2024-02-29T08:23:18.455Z,15.52
2024-02-29T08:25:48.057Z,17.92
2024-02-29T08:28:16.986Z,18.65
2024-02-29T08:30:45.710Z,14.65
2024-02-29T08:33:14.576Z,14.98
2024-02-29T08:35:42.981Z,25.08
2024-02-29T08:38:11.652Z,18.48
2024-02-29T08:40:39.358Z,14.68
2024-02-29T08:43:09.390Z,17.10
2024-02-29T08:48:06.649Z,16.30
2024-02-29T08:50:34.956Z,18.73
2024-02-29T08:53:03.524Z,13.30
2024-02-29T08:55:32.040Z,15.10
2024-02-29T08:58:00.782Z,14.40
2024-02-29T09:00:30.549Z,15.38
2024-02-29T09:02:59.144Z,17.55
2024-02-29T09:05:27.398Z,14.27
2024-02-29T09:07:55.980Z,17.25
2024-02-29T09:10:25.869Z,14.43
2024-02-29T09:12:55.901Z,17.05
2024-02-29T09:17:54.078Z,13.95
2024-02-29T09:20:23.250Z,12.70
2024-02-29T09:25:20.485Z,11.20
2024-02-29T09:27:51.129Z,11.75
2024-02-29T09:30:19.630Z,12.73
2024-02-29T09:32:53.401Z,10.85
2024-02-29T09:35:26.497Z,11.68
2024-02-29T09:37:55.174Z,10.32
2024-02-29T09:40:23.614Z,13.57
2024-02-29T09:42:52.414Z,13.40
2024-02-29T09:45:25.350Z,13.77
2024-02-29T09:47:54.592Z,13.82
2024-02-29T09:50:24.298Z,11.98
2024-02-29T09:52:55.891Z,12.68
2024-02-29T09:55:24.381Z,12.68
2024-02-29T09:57:53.517Z,13.55
2024-02-29T10:00:22.683Z,11.80
2024-02-29T10:02:55.755Z,12.68
2024-02-29T10:05:26.315Z,11.30
2024-02-29T10:07:55.139Z,11.93
2024-02-29T10:10:23.733Z,9.73
2024-02-29T10:12:56.905Z,10.20
2024-02-29T10:15:29.525Z,10.23
2024-02-29T10:17:58.618Z,12.95
2024-02-29T10:20:28.984Z,10.23
2024-02-29T10:22:58.090Z,9.60
2024-02-29T10:25:28.092Z,10.00
2024-02-29T10:28:05.419Z,10.15
2024-02-29T10:30:33.986Z,9.75
2024-02-29T10:33:03.404Z,13.90
2024-02-29T10:35:33.032Z,10.38
2024-02-29T10:38:01.816Z,9.00
2024-02-29T10:40:30.167Z,9.25
2024-02-29T10:43:02.770Z,16.30
2024-02-29T10:45:34.305Z,10.48
2024-02-29T10:48:13.340Z,9.68
2024-02-29T10:50:56.692Z,12.43
2024-02-29T10:53:38.614Z,11.88
2024-02-29T10:56:13.566Z,9.63
2024-02-29T10:58:43.637Z,15.55
2024-02-29T11:01:13.810Z,12.40
2024-02-29T11:03:43.440Z,11.43
2024-02-29T11:06:14.058Z,14.02
2024-02-29T11:08:43.226Z,13.25
2024-02-29T11:11:13.255Z,10.70
2024-02-29T11:13:41.957Z,12.63
2024-02-29T11:16:12.372Z,10.77
2024-02-29T11:18:42.392Z,12.43
2024-02-29T11:21:10.993Z,8.88
2024-02-29T11:23:42.294Z,12.40
2024-02-29T11:26:12.021Z,11.88
2024-02-29T11:28:43.355Z,12.02
2024-02-29T11:31:19.196Z,10.52
2024-02-29T11:33:48.618Z,11.57
2024-02-29T11:36:16.995Z,11.20
2024-02-29T11:38:47.307Z,13.32
2024-02-29T11:41:16.881Z,11.75
2024-02-29T11:43:46.970Z,10.02
2024-02-29T11:46:16.943Z,11.88
2024-02-29T11:48:45.887Z,11.45
2024-02-29T11:51:14.120Z,9.68
2024-02-29T11:53:42.988Z,11.88
2024-02-29T11:56:15.928Z,11.43
2024-02-29T11:58:46.881Z,11.88
2024-02-29T12:01:15.680Z,12.10
2024-02-29T12:03:46.390Z,11.77
2024-02-29T12:06:15.079Z,10.70
2024-02-29T12:08:46.032Z,12.70
2024-02-29T12:11:16.513Z,10.38
2024-02-29T12:13:45.323Z,13.85
2024-02-29T12:16:14.105Z,12.52
2024-02-29T12:18:43.235Z,11.50
2024-02-29T12:21:11.920Z,15.30
2024-02-29T12:23:41.402Z,11.57
2024-02-29T12:26:11.260Z,13.27
2024-02-29T12:28:42.020Z,9.50
2024-02-29T12:31:11.220Z,9.68
2024-02-29T12:33:40.915Z,11.20
2024-02-29T12:36:10.130Z,10.60
2024-02-29T12:38:38.866Z,10.77
2024-02-29T12:41:08.049Z,12.98
2024-02-29T12:43:38.033Z,11.30
2024-02-29T12:46:09.220Z,11.73
2024-02-29T12:48:38.134Z,10.82
2024-02-29T12:51:09.361Z,9.63
2024-02-29T12:53:38.298Z,10.10
2024-02-29T12:56:06.856Z,8.88
2024-02-29T12:58:35.673Z,14.88
2024-02-29T13:01:07.030Z,9.70
2024-02-29T13:03:37.768Z,10.13
2024-02-29T13:06:07.002Z,11.48
2024-02-29T13:11:04.422Z,11.45
2024-02-29T13:13:33.281Z,12.27
2024-02-29T13:16:01.925Z,9.57
2024-02-29T13:18:30.594Z,13.65
2024-02-29T13:21:01.308Z,11.52
2024-02-29T13:23:31.033Z,12.55
2024-02-29T13:26:02.438Z,13.05
2024-02-29T13:28:31.493Z,11.15
2024-02-29T13:30:59.809Z,13.80
2024-02-29T13:33:29.184Z,11.57
2024-02-29T13:35:57.586Z,10.38
2024-02-29T13:38:29.819Z,19.20
2024-02-29T13:40:58.125Z,14.23
2024-02-29T13:43:28.044Z,11.52
2024-02-29T13:45:56.496Z,11.60
2024-02-29T13:48:25.225Z,15.45
2024-02-29T13:50:53.528Z,14.00
2024-02-29T13:53:22.289Z,11.90
2024-02-29T13:55:52.034Z,13.52
2024-02-29T13:58:21.024Z,11.07
2024-02-29T14:00:49.477Z,11.75
2024-02-29T14:03:18.128Z,15.10
2024-02-29T14:05:46.426Z,13.63
2024-02-29T14:08:15.066Z,9.63
2024-02-29T14:10:43.342Z,11.50
2024-02-29T14:13:13.345Z,9.73
2024-02-29T14:15:41.724Z,9.73
2024-02-29T14:18:11.678Z,11.20
2024-02-29T14:20:40.031Z,10.65
2024-02-29T14:23:08.662Z,8.68
2024-02-29T14:25:37.016Z,11.75
2024-02-29T14:28:06.233Z,13.07
2024-02-29T14:30:37.955Z,10.18
2024-02-29T14:33:07.111Z,11.93
2024-02-29T14:35:36.369Z,10.18
2024-02-29T14:38:06.514Z,10.98
2024-02-29T14:40:35.615Z,9.25
2024-02-29T14:43:05.846Z,9.82
2024-02-29T14:45:36.817Z,10.48
2024-02-29T14:48:08.279Z,8.35
2024-02-29T14:50:36.957Z,9.02
2024-02-29T14:53:06.042Z,8.52
2024-02-29T14:55:34.373Z,10.18
2024-02-29T14:58:03.576Z,9.90
2024-02-29T15:00:32.277Z,12.77
2024-02-29T15:03:00.966Z,13.43
2024-02-29T15:05:30.648Z,13.32
2024-02-29T15:08:02.236Z,12.50
2024-02-29T15:10:30.555Z,12.40
2024-02-29T15:12:59.346Z,11.27
2024-02-29T15:15:29.510Z,12.75
2024-02-29T15:17:58.590Z,9.98
2024-02-29T15:20:27.083Z,12.77
2024-02-29T15:22:57.222Z,14.00
2024-02-29T15:25:29.094Z,12.35
2024-02-29T15:28:00.120Z,11.70
2024-02-29T15:30:28.656Z,11.88
2024-02-29T15:32:57.398Z,13.35
2024-02-29T15:35:25.721Z,10.82
2024-02-29T15:37:55.501Z,14.63
2024-02-29T15:40:25.335Z,10.43
2024-02-29T15:42:54.136Z,13.82
2024-02-29T15:45:22.447Z,13.48
2024-02-29T15:47:51.364Z,12.30
2024-02-29T15:50:19.805Z,10.18
2024-02-29T15:52:48.626Z,14.30
2024-02-29T15:55:17.146Z,15.10
2024-02-29T15:57:47.211Z,14.98
2024-02-29T16:00:16.606Z,15.75
2024-02-29T16:02:45.544Z,16.75
2024-02-29T16:05:14.028Z,15.27
2024-02-29T16:07:42.614Z,15.13
2024-02-29T16:10:11.490Z,14.98
2024-02-29T16:12:40.999Z,14.15
2024-02-29T16:15:13.481Z,15.70
2024-02-29T16:17:43.092Z,12.00
2024-02-29T16:20:12.592Z,15.05
2024-02-29T16:22:41.970Z,12.48
2024-02-29T16:25:10.660Z,14.82
2024-02-29T16:27:39.741Z,17.77
2024-02-29T16:30:10.674Z,15.70
2024-02-29T16:32:40.878Z,14.05
2024-02-29T16:35:11.312Z,22.48
2024-02-29T16:37:40.320Z,15.43
2024-02-29T16:40:10.912Z,16.02
2024-02-29T16:42:39.867Z,22.27
2024-02-29T16:45:10.715Z,17.60
2024-02-29T16:47:40.214Z,20.70
2024-02-29T16:50:09.162Z,23.02
2024-02-29T16:57:37.293Z,16.98
2024-02-29T17:00:06.427Z,18.77
2024-02-29T17:05:05.253Z,40.13
2024-02-29T17:07:33.942Z,19.30
2024-02-29T17:10:02.440Z,18.00
2024-02-29T17:12:32.034Z,17.52
2024-02-29T17:15:00.380Z,20.77
2024-02-29T17:17:30.226Z,15.30
2024-02-29T17:22:29.263Z,12.35
2024-02-29T17:24:57.630Z,12.63
2024-02-29T17:27:26.916Z,13.27
2024-02-29T17:29:55.920Z,15.55
2024-02-29T17:32:26.382Z,14.40
2024-02-29T17:34:54.929Z,18.33
2024-02-29T17:37:27.125Z,16.55
2024-02-29T17:39:57.359Z,19.70
2024-02-29T17:42:26.559Z,21.63
2024-02-29T17:44:54.924Z,18.38
2024-02-29T17:47:23.732Z,20.35
2024-02-29T17:49:52.683Z,22.73
2024-02-29T17:52:21.476Z,24.45
2024-02-29T17:54:51.204Z,26.58
2024-02-29T17:57:20.009Z,19.38
2024-02-29T17:59:48.244Z,24.58
2024-02-29T18:02:19.851Z,38.80
2024-02-29T18:04:50.428Z,26.48
2024-02-29T18:07:19.380Z,25.85
2024-02-29T18:09:47.692Z,27.40
2024-02-29T18:12:17.866Z,23.27
2024-02-29T18:14:46.294Z,26.20
2024-02-29T18:17:15.078Z,25.35
2024-02-29T18:19:44.580Z,25.23
2024-02-29T18:22:13.645Z,29.70
2024-02-29T18:24:42.399Z,32.67
2024-02-29T18:27:12.241Z,34.22
2024-02-29T18:29:41.971Z,25.00
2024-02-29T18:32:10.890Z,25.83
2024-02-29T18:34:39.306Z,33.47
2024-02-29T18:37:08.276Z,33.97
2024-02-29T18:39:36.874Z,48.22
2024-02-29T18:42:05.710Z,58.28
2024-02-29T18:44:34.408Z,48.03
2024-02-29T18:47:05.758Z,47.58
2024-02-29T18:49:34.222Z,35.97
2024-02-29T18:52:03.763Z,43.22
2024-02-29T18:54:32.243Z,46.38
2024-02-29T18:57:01.106Z,40.00
2024-02-29T18:59:30.897Z,45.80
2024-02-29T19:02:00.515Z,48.22
2024-02-29T19:04:31.532Z,53.30
2024-02-29T19:07:00.218Z,44.05
2024-02-29T19:09:28.490Z,39.97
2024-02-29T19:11:57.221Z,35.40
2024-02-29T19:14:25.737Z,37.20
2024-02-29T19:16:54.999Z,38.67
2024-02-29T19:19:23.449Z,37.53
2024-02-29T19:21:53.571Z,39.33
2024-02-29T19:24:21.919Z,43.30
2024-02-29T19:26:50.549Z,35.83
2024-02-29T19:29:18.847Z,34.58
2024-02-29T19:31:47.881Z,34.97
2024-02-29T19:34:16.302Z,44.75
2024-02-29T19:36:45.399Z,41.00
2024-02-29T19:39:15.411Z,36.83
2024-02-29T19:41:44.546Z,35.60
2024-02-29T19:44:13.551Z,47.20
2024-02-29T19:46:45.840Z,39.13
2024-02-29T19:49:14.509Z,34.67
2024-02-29T19:51:44.266Z,35.92
2024-02-29T19:56:43.208Z,37.70
2024-02-29T19:59:12.756Z,41.88
2024-02-29T20:01:42.795Z,45.28
2024-02-29T20:06:43.384Z,39.80
2024-02-29T20:09:11.879Z,34.20
2024-02-29T20:11:42.378Z,34.65
2024-02-29T20:14:11.024Z,40.25
2024-02-29T20:16:39.929Z,34.63
2024-02-29T20:19:08.886Z,37.47
2024-02-29T20:21:37.602Z,41.58
2024-02-29T20:24:06.795Z,36.50
2024-02-29T20:26:35.566Z,32.38
2024-02-29T20:29:05.178Z,35.35
2024-02-29T20:31:35.025Z,34.63
2024-02-29T20:34:03.546Z,35.20
2024-02-29T20:36:32.226Z,32.95
2024-02-29T20:39:00.617Z,34.53
2024-02-29T20:41:29.298Z,30.25
2024-02-29T20:43:57.646Z,32.00
2024-02-29T20:46:27.752Z,29.40
2024-02-29T20:48:56.137Z,34.08
2024-02-29T20:51:24.887Z,39.42
2024-02-29T20:53:53.194Z,37.65
2024-02-29T20:56:22.019Z,32.70
2024-02-29T20:58:50.494Z,32.08
2024-02-29T21:01:19.291Z,25.98
2024-02-29T21:03:50.731Z,29.98
2024-02-29T21:06:23.808Z,29.40
2024-02-29T21:08:52.117Z,29.27
2024-02-29T21:11:21.412Z,31.10
2024-02-29T21:13:50.467Z,29.50
2024-02-29T21:16:19.192Z,29.15
2024-02-29T21:18:48.906Z,33.97
2024-02-29T21:21:19.726Z,32.20
2024-02-29T21:23:48.977Z,28.27
2024-02-29T21:26:19.224Z,30.85
2024-02-29T21:28:49.536Z,29.23
2024-02-29T21:31:18.739Z,29.58
2024-02-29T21:33:48.695Z,27.40
2024-02-29T21:36:17.554Z,35.08
2024-02-29T21:38:48.118Z,31.90
2024-02-29T21:41:16.869Z,32.53
2024-02-29T21:43:45.811Z,37.30
2024-02-29T21:46:14.861Z,33.10
2024-02-29T21:48:43.105Z,34.83
2024-02-29T21:51:18.534Z,33.65
2024-02-29T21:53:47.023Z,35.22
2024-02-29T21:56:16.235Z,39.25
2024-02-29T21:58:44.699Z,35.65
2024-02-29T22:01:13.565Z,38.95
2024-02-29T22:03:41.982Z,32.97
2024-02-29T22:06:11.987Z,44.13
2024-02-29T22:08:40.290Z,37.58
2024-02-29T22:11:10.649Z,45.58
2024-02-29T22:13:39.079Z,42.05
2024-02-29T22:16:09.345Z,43.20
2024-02-29T22:18:37.746Z,42.88
2024-02-29T22:21:08.074Z,45.20
2024-02-29T22:23:38.127Z,41.97
2024-02-29T22:26:06.764Z,45.20
2024-02-29T22:28:35.155Z,46.75
2024-02-29T22:31:04.067Z,41.42
2024-02-29T22:33:32.468Z,55.40
2024-02-29T22:36:01.330Z,57.80
2024-02-29T22:38:29.640Z,49.35
2024-02-29T22:40:59.689Z,63.65
2024-02-29T22:43:28.252Z,57.30
2024-02-29T22:45:56.907Z,60.00
2024-02-29T22:48:25.563Z,66.95
2024-02-29T22:50:57.157Z,61.80
2024-02-29T22:53:25.472Z,59.28
2024-02-29T22:55:54.343Z,57.70
2024-02-29T22:58:24.259Z,72.22
2024-02-29T23:00:54.270Z,60.25
2024-02-29T23:03:23.291Z,69.13
2024-02-29T23:05:52.103Z,71.53
2024-02-29T23:08:20.929Z,64.80
2024-02-29T23:10:49.628Z,60.92
2024-02-29T23:13:18.087Z,68.05
2024-02-29T23:15:50.159Z,69.32
2024-02-29T23:18:18.547Z,65.32
2024-02-29T23:20:47.825Z,61.58
2024-02-29T23:23:16.235Z,72.07
2024-02-29T23:25:45.221Z,70.03
2024-02-29T23:28:13.553Z,69.13
2024-02-29T23:33:12.028Z,64.53
2024-02-29T23:35:40.525Z,69.55
2024-02-29T23:38:08.876Z,74.03
2024-02-29T23:40:37.573Z,75.45
2024-02-29T23:43:06.012Z,69.97
2024-02-29T23:45:34.630Z,71.18
2024-02-29T23:48:03.136Z,62.30
2024-02-29T23:50:33.224Z,68.25
2024-02-29T23:53:01.481Z,62.70
2024-02-29T23:55:30.254Z,68.80
2024-02-29T23:57:58.627Z,77.85
